createdAt,value
2023-03-05T00:00:54.589Z,23.13
2023-03-05T00:05:57.703Z,27.60
2023-03-05T00:11:01.460Z,24.70
2023-03-05T00:16:08.905Z,26.15
2023-03-05T00:21:21.218Z,20.50
2023-03-05T00:26:25.229Z,27.88
2023-03-05T00:31:32.085Z,31.15
2023-03-05T00:36:34.932Z,26.35
2023-03-05T00:41:37.224Z,24.33
2023-03-05T00:46:39.177Z,26.15
2023-03-05T00:51:41.318Z,26.85
2023-03-05T00:56:43.023Z,25.60
2023-03-05T01:01:44.725Z,24.88
2023-03-05T01:06:46.746Z,29.25
2023-03-05T01:11:48.752Z,25.45
2023-03-05T01:16:50.340Z,28.58
2023-03-05T01:21:52.145Z,26.08
2023-03-05T01:26:53.739Z,26.15
2023-03-05T01:31:55.406Z,28.77
2023-03-05T01:36:56.994Z,26.63
2023-03-05T01:41:58.586Z,30.05
2023-03-05T01:47:00.317Z,26.73
2023-03-05T01:52:11.816Z,26.55
2023-03-05T01:57:46.970Z,25.02
2023-03-05T02:02:50.477Z,22.98
2023-03-05T02:07:54.491Z,23.63
2023-03-05T02:13:00.505Z,28.90
2023-03-05T02:18:02.488Z,24.17
2023-03-05T02:23:04.117Z,26.60
2023-03-05T02:28:37.511Z,28.13
2023-03-05T02:33:39.489Z,28.45
2023-03-05T02:38:42.628Z,25.88
2023-03-05T02:43:44.693Z,25.58
2023-03-05T02:48:46.951Z,24.75
2023-03-05T02:53:49.370Z,31.27
2023-03-05T02:58:51.994Z,23.95
2023-03-05T03:03:54.688Z,26.80
2023-03-05T03:08:56.321Z,30.85
2023-03-05T03:13:59.872Z,25.95
2023-03-05T03:19:01.452Z,25.50
2023-03-05T03:24:03.251Z,28.23
2023-03-05T03:29:04.892Z,28.15
2023-03-05T03:34:06.610Z,25.80
2023-03-05T03:39:09.971Z,26.10
2023-03-05T03:44:13.116Z,26.77
2023-03-05T03:49:24.220Z,25.65
2023-03-05T03:54:26.176Z,27.00
2023-03-05T03:59:27.803Z,24.55
2023-03-05T04:04:30.356Z,26.60
2023-03-05T04:09:32.007Z,27.50
2023-03-05T04:14:34.033Z,23.17
2023-03-05T04:19:35.605Z,28.80
2023-03-05T04:24:38.188Z,25.70
2023-03-05T04:29:39.868Z,28.15
2023-03-05T04:34:41.518Z,24.30
2023-03-05T04:39:43.738Z,25.65
2023-03-05T04:44:46.185Z,23.23
2023-03-05T04:49:47.822Z,27.13
2023-03-05T04:54:49.554Z,27.13
2023-03-05T04:59:51.188Z,26.27
2023-03-05T05:04:53.518Z,21.80
2023-03-05T05:09:55.247Z,23.95
2023-03-05T05:14:58.024Z,26.58
2023-03-05T05:20:07.729Z,23.65
2023-03-05T05:25:10.496Z,27.27
2023-03-05T05:30:12.691Z,26.83
2023-03-05T05:35:14.314Z,23.77
2023-03-05T05:40:15.933Z,27.48
2023-03-05T05:45:17.922Z,24.10
2023-03-05T05:50:20.714Z,24.67
2023-03-05T05:55:22.348Z,23.05
2023-03-05T06:00:24.113Z,27.95
2023-03-05T06:05:25.915Z,22.45
2023-03-05T06:10:27.544Z,23.55
2023-03-05T06:15:29.228Z,24.23
2023-03-05T06:20:30.844Z,26.20
2023-03-05T06:25:32.477Z,25.17
2023-03-05T06:30:34.150Z,27.95
2023-03-05T06:35:40.080Z,30.33
2023-03-05T06:40:41.793Z,25.08
2023-03-05T06:45:43.570Z,25.20
2023-03-05T06:50:45.244Z,24.08
2023-03-05T06:55:46.864Z,28.45
2023-03-05T07:00:48.605Z,26.75
2023-03-05T07:05:50.197Z,33.10
2023-03-05T07:10:51.997Z,23.05
2023-03-05T07:15:54.226Z,23.70
2023-03-05T07:20:55.854Z,25.83
2023-03-05T07:25:57.624Z,24.60
2023-03-05T07:31:01.657Z,25.00
2023-03-05T07:36:05.150Z,22.02
2023-03-05T07:41:10.929Z,24.38
2023-03-05T07:46:15.461Z,27.10
2023-03-05T07:51:19.936Z,26.20
2023-03-05T07:56:31.904Z,30.65
2023-03-05T08:01:34.490Z,30.92
2023-03-05T08:11:41.207Z,26.77
2023-03-05T08:16:42.829Z,27.63
2023-03-05T08:21:45.302Z,28.33
2023-03-05T08:26:47.141Z,28.33
2023-03-05T08:31:49.748Z,47.25
2023-03-05T08:36:51.653Z,27.48
2023-03-05T08:41:53.309Z,23.48
2023-03-05T08:46:55.119Z,24.10
2023-03-05T08:51:56.877Z,22.52
2023-03-05T08:56:58.704Z,25.85
2023-03-05T09:02:01.810Z,22.50
2023-03-05T09:07:03.628Z,27.95
2023-03-05T09:12:05.524Z,22.77
2023-03-05T09:17:07.696Z,24.95
2023-03-05T09:22:09.375Z,26.80
2023-03-05T09:27:10.991Z,25.60
2023-03-05T09:32:12.648Z,27.80
2023-03-05T09:37:14.376Z,23.90
2023-03-05T09:42:29.495Z,27.02
2023-03-05T09:47:52.192Z,25.52
2023-03-05T09:52:57.540Z,22.83
2023-03-05T09:58:06.766Z,26.05
2023-03-05T10:03:30.254Z,26.38
2023-03-05T10:08:52.245Z,26.83
2023-03-05T10:13:54.200Z,24.98
2023-03-05T10:19:34.357Z,24.10
2023-03-05T10:24:49.730Z,24.45
2023-03-05T10:30:21.154Z,23.08
2023-03-05T10:35:59.393Z,25.48
2023-03-05T10:41:12.588Z,22.60
2023-03-05T10:46:20.886Z,25.73
2023-03-05T10:51:39.566Z,22.88
2023-03-05T10:56:41.178Z,25.15
2023-03-05T11:02:02.539Z,22.70
2023-03-05T11:07:16.144Z,21.73
2023-03-05T11:12:22.029Z,25.70
2023-03-05T11:17:31.523Z,23.45
2023-03-05T11:22:35.900Z,22.42
2023-03-05T11:27:44.508Z,23.08
2023-03-05T11:32:47.865Z,24.08
2023-03-05T11:38:00.979Z,19.77
2023-03-05T11:43:05.007Z,20.23
2023-03-05T11:48:15.483Z,21.90
2023-03-05T11:53:35.424Z,22.60
2023-03-05T11:59:04.586Z,20.73
2023-03-05T12:04:08.553Z,28.45
2023-03-05T12:09:37.859Z,23.02
2023-03-05T12:14:51.661Z,22.55
2023-03-05T12:19:53.269Z,22.02
2023-03-05T12:25:29.638Z,16.10
2023-03-05T12:30:33.999Z,14.73
2023-03-05T12:35:38.593Z,16.20
2023-03-05T12:40:40.259Z,17.55
2023-03-05T12:45:42.497Z,13.35
2023-03-05T12:50:45.033Z,15.60
2023-03-05T12:56:25.662Z,12.73
2023-03-05T13:01:41.183Z,14.27
2023-03-05T13:06:42.997Z,13.57
2023-03-05T13:11:51.299Z,18.17
2023-03-05T13:16:53.096Z,9.95
2023-03-05T13:22:04.834Z,11.80
2023-03-05T13:27:30.016Z,8.82
2023-03-05T13:32:33.100Z,10.60
2023-03-05T13:37:37.539Z,9.52
2023-03-05T13:42:39.161Z,8.25
2023-03-05T13:47:53.594Z,7.97
2023-03-05T13:52:58.369Z,8.27
2023-03-05T13:58:00.934Z,11.25
2023-03-05T14:03:23.753Z,7.30
2023-03-05T14:08:26.753Z,6.25
2023-03-05T14:13:29.457Z,6.22
2023-03-05T14:18:31.060Z,8.48
2023-03-05T14:23:32.695Z,7.78
2023-03-05T14:28:34.479Z,9.07
2023-03-05T14:33:36.645Z,17.80
2023-03-05T14:38:43.220Z,15.77
2023-03-05T14:43:44.848Z,14.07
2023-03-05T14:48:46.985Z,7.70
2023-03-05T14:53:51.080Z,8.98
2023-03-05T14:58:53.921Z,4.68
2023-03-05T15:03:55.593Z,11.10
2023-03-05T15:08:57.295Z,8.45
2023-03-05T15:13:58.920Z,6.85
2023-03-05T15:19:00.900Z,16.52
2023-03-05T15:24:02.602Z,12.65
2023-03-05T15:29:04.442Z,18.20
2023-03-05T15:34:06.966Z,7.40
2023-03-05T15:39:08.560Z,6.88
2023-03-05T15:44:10.245Z,11.20
2023-03-05T15:49:12.046Z,8.50
2023-03-05T15:54:13.693Z,8.45
2023-03-05T15:59:15.415Z,7.72
2023-03-05T16:04:18.028Z,4.20
2023-03-05T16:09:21.755Z,11.30
2023-03-05T16:14:26.192Z,6.95
2023-03-05T16:19:28.091Z,5.57
2023-03-05T16:24:29.774Z,9.73
2023-03-05T16:29:32.493Z,10.45
2023-03-05T16:34:34.862Z,6.85
2023-03-05T16:39:36.507Z,11.32
2023-03-05T16:44:38.088Z,8.88
2023-03-05T16:49:40.419Z,8.65
2023-03-05T16:54:42.240Z,6.45
2023-03-05T16:59:44.921Z,38.10
2023-03-05T17:04:46.808Z,22.08
2023-03-05T17:09:50.349Z,7.35
2023-03-05T17:14:52.190Z,8.52
2023-03-05T17:19:53.865Z,9.70
2023-03-05T17:24:55.481Z,9.23
2023-03-05T17:29:57.135Z,33.45
2023-03-05T17:34:58.727Z,16.42
2023-03-05T17:40:00.621Z,13.70
2023-03-05T17:45:04.403Z,25.88
2023-03-05T17:50:07.533Z,30.00
2023-03-05T17:55:11.043Z,14.23
2023-03-05T18:00:28.245Z,10.07
2023-03-05T18:05:30.375Z,9.18
2023-03-05T18:10:33.412Z,6.05
2023-03-05T18:15:35.996Z,4.90
2023-03-05T18:20:37.671Z,6.22
2023-03-05T18:25:39.541Z,13.07
2023-03-05T18:30:42.349Z,7.47
2023-03-05T18:35:44.017Z,9.05
2023-03-05T18:40:47.093Z,12.00
2023-03-05T18:45:53.681Z,6.55
2023-03-05T18:50:55.334Z,6.03
2023-03-05T18:55:56.916Z,5.05
2023-03-05T19:00:58.684Z,11.75
2023-03-05T19:06:00.396Z,11.32
2023-03-05T19:11:02.655Z,12.75
2023-03-05T19:16:11.729Z,10.45
2023-03-05T19:21:13.376Z,7.93
2023-03-05T19:26:15.247Z,9.95
2023-03-05T19:31:16.892Z,12.27
2023-03-05T19:36:18.544Z,7.68
2023-03-05T19:41:21.777Z,13.75
2023-03-05T19:46:23.556Z,21.63
2023-03-05T19:51:26.364Z,14.32
2023-03-05T19:56:28.023Z,9.93
2023-03-05T20:01:29.688Z,12.50
2023-03-05T20:06:33.606Z,16.58
2023-03-05T20:11:35.763Z,11.77
2023-03-05T20:16:37.878Z,11.27
2023-03-05T20:21:41.068Z,16.13
2023-03-05T20:26:44.516Z,12.52
2023-03-05T20:31:47.180Z,15.55
2023-03-05T20:36:49.289Z,18.33
2023-03-05T20:41:51.226Z,12.10
2023-03-05T20:47:02.598Z,12.55
2023-03-05T20:52:04.593Z,12.48
2023-03-05T20:57:06.232Z,14.88
2023-03-05T21:02:09.762Z,11.07
2023-03-05T21:07:11.479Z,9.82
2023-03-05T21:12:13.236Z,9.60
2023-03-05T21:17:15.136Z,8.07
2023-03-05T21:22:16.753Z,9.52
2023-03-05T21:27:18.458Z,9.25
2023-03-05T21:32:20.118Z,14.30
2023-03-05T21:37:21.715Z,18.77
2023-03-05T21:42:23.367Z,16.00
2023-03-05T21:47:24.988Z,14.15
2023-03-05T21:52:26.789Z,11.25
2023-03-05T21:57:29.203Z,10.52
2023-03-05T22:02:30.809Z,10.25
2023-03-05T22:07:33.194Z,9.70
2023-03-05T22:12:54.085Z,8.18
2023-03-05T22:17:55.780Z,6.28
2023-03-05T22:22:57.365Z,8.90
2023-03-05T22:27:59.232Z,8.30
2023-03-05T22:33:01.656Z,9.45
2023-03-05T22:38:03.265Z,9.18
2023-03-05T22:43:04.953Z,9.75
2023-03-05T22:48:07.287Z,10.05
2023-03-05T22:53:08.941Z,9.35
2023-03-05T22:58:10.565Z,8.75
2023-03-05T23:03:12.231Z,9.30
2023-03-05T23:08:14.306Z,9.95
2023-03-05T23:13:15.982Z,9.07
2023-03-05T23:18:17.583Z,9.50
2023-03-05T23:23:20.037Z,10.35
2023-03-05T23:28:21.773Z,10.60
2023-03-05T23:33:24.189Z,10.13
2023-03-05T23:38:27.823Z,11.55
2023-03-05T23:43:30.180Z,11.02
2023-03-05T23:48:31.978Z,12.25
2023-03-05T23:53:33.644Z,11.32
2023-03-05T23:58:36.275Z,9.98
